Terminal Aerodrome Forecast
Issued by NWS

Home | Current Version | Previous Version | Text Only | Print | Product List | Glossary On
Versions: 1 2 3 4 5 6 7 8 9 10 11 12 13 14 15 16 17 18
000
FTUS44 KCRP 170500
TAFALI
TAF
KALI 170540Z 1706/1806 VRB06KT P6SM FEW025 BKN150
      TEMPO 1709/1713 5SM BR BKN015
     FM171400 17007KT P6SM VCSH SCT025
     FM171900 15011KT P6SM VCTS SCT028CB BKN040
      TEMPO 1719/1723 4SM TSRA BKN028CB
     FM180000 15012G18KT P6SM SCT040
     FM180200 15006KT P6SM FEW015 SCT040=

USA.gov is the U.S. government's official web portal to all federal, state and local government web resources and services.